sensor_id;sensor_type;location;lat;lon;timestamp;temperature;humidity
18777;DHT22;9517;51.174;4.160;2022-08-14T00:00:10;23.30;93.40
18777;DHT22;9517;51.174;4.160;2022-08-14T00:02:38;23.30;93.70
18777;DHT22;9517;51.174;4.160;2022-08-14T00:05:07;23.20;93.80
18777;DHT22;9517;51.174;4.160;2022-08-14T00:07:35;23.20;93.80
18777;DHT22;9517;51.174;4.160;2022-08-14T00:10:02;23.30;94.00
18777;DHT22;9517;51.174;4.160;2022-08-14T00:12:30;23.30;94.20
18777;DHT22;9517;51.174;4.160;2022-08-14T00:15:09;23.30;94.30
18777;DHT22;9517;51.174;4.160;2022-08-14T00:17:36;23.40;94.50
18777;DHT22;9517;51.174;4.160;2022-08-14T00:20:04;23.30;94.80
18777;DHT22;9517;51.174;4.160;2022-08-14T00:22:33;23.30;95.00
18777;DHT22;9517;51.174;4.160;2022-08-14T00:25:00;23.20;95.20
18777;DHT22;9517;51.174;4.160;2022-08-14T00:27:27;23.00;95.90
18777;DHT22;9517;51.174;4.160;2022-08-14T00:29:54;23.00;96.10
18777;DHT22;9517;51.174;4.160;2022-08-14T00:32:22;23.00;96.20
18777;DHT22;9517;51.174;4.160;2022-08-14T00:34:49;23.00;96.10
18777;DHT22;9517;51.174;4.160;2022-08-14T00:37:16;23.00;96.80
18777;DHT22;9517;51.174;4.160;2022-08-14T00:39:43;23.00;97.90
18777;DHT22;9517;51.174;4.160;2022-08-14T00:42:10;22.90;98.30
18777;DHT22;9517;51.174;4.160;2022-08-14T00:44:37;22.70;99.90
18777;DHT22;9517;51.174;4.160;2022-08-14T00:47:04;22.60;99.90
18777;DHT22;9517;51.174;4.160;2022-08-14T00:49:35;22.50;99.90
18777;DHT22;9517;51.174;4.160;2022-08-14T00:52:04;22.40;99.90
18777;DHT22;9517;51.174;4.160;2022-08-14T00:54:31;22.30;99.90
18777;DHT22;9517;51.174;4.160;2022-08-14T00:56:59;22.30;99.90
18777;DHT22;9517;51.174;4.160;2022-08-14T00:59:26;22.30;99.90
18777;DHT22;9517;51.174;4.160;2022-08-14T01:01:56;22.20;99.90
18777;DHT22;9517;51.174;4.160;2022-08-14T01:04:24;22.20;99.90
18777;DHT22;9517;51.174;4.160;2022-08-14T01:06:54;22.10;99.90
18777;DHT22;9517;51.174;4.160;2022-08-14T01:09:21;22.00;99.90
18777;DHT22;9517;51.174;4.160;2022-08-14T01:11:48;22.00;99.90
18777;DHT22;9517;51.174;4.160;2022-08-14T01:14:16;22.10;99.90
18777;DHT22;9517;51.174;4.160;2022-08-14T01:16:43;22.10;99.90
18777;DHT22;9517;51.174;4.160;2022-08-14T01:19:10;22.10;99.90
18777;DHT22;9517;51.174;4.160;2022-08-14T01:21:56;22.20;99.90
18777;DHT22;9517;51.174;4.160;2022-08-14T01:24:24;22.20;99.90
18777;DHT22;9517;51.174;4.160;2022-08-14T01:26:53;22.30;99.90
18777;DHT22;9517;51.174;4.160;2022-08-14T01:29:20;22.20;99.90
18777;DHT22;9517;51.174;4.160;2022-08-14T01:31:48;22.30;99.90
18777;DHT22;9517;51.174;4.160;2022-08-14T01:34:19;22.30;99.90
18777;DHT22;9517;51.174;4.160;2022-08-14T01:36:50;22.30;99.90
18777;DHT22;9517;51.174;4.160;2022-08-14T01:39:20;22.30;99.90
18777;DHT22;9517;51.174;4.160;2022-08-14T01:41:48;22.20;99.90
18777;DHT22;9517;51.174;4.160;2022-08-14T01:44:21;22.20;99.90
18777;DHT22;9517;51.174;4.160;2022-08-14T01:46:55;22.20;99.90
18777;DHT22;9517;51.174;4.160;2022-08-14T01:49:26;22.20;99.90
18777;DHT22;9517;51.174;4.160;2022-08-14T01:51:56;22.20;99.90
18777;DHT22;9517;51.174;4.160;2022-08-14T01:54:24;22.30;99.90
18777;DHT22;9517;51.174;4.160;2022-08-14T01:56:54;22.30;99.90
18777;DHT22;9517;51.174;4.160;2022-08-14T01:59:23;22.30;99.90
18777;DHT22;9517;51.174;4.160;2022-08-14T02:01:54;22.30;99.90
18777;DHT22;9517;51.174;4.160;2022-08-14T02:04:23;22.30;99.90
18777;DHT22;9517;51.174;4.160;2022-08-14T02:06:51;22.40;99.90
18777;DHT22;9517;51.174;4.160;2022-08-14T02:09:19;22.30;99.90
18777;DHT22;9517;51.174;4.160;2022-08-14T02:11:48;22.40;99.90
18777;DHT22;9517;51.174;4.160;2022-08-14T02:14:16;22.30;99.90
18777;DHT22;9517;51.174;4.160;2022-08-14T02:16:45;22.30;99.90
18777;DHT22;9517;51.174;4.160;2022-08-14T02:19:14;22.30;99.90
18777;DHT22;9517;51.174;4.160;2022-08-14T02:21:44;22.10;99.90
18777;DHT22;9517;51.174;4.160;2022-08-14T02:24:12;22.00;99.90
18777;DHT22;9517;51.174;4.160;2022-08-14T02:26:42;22.00;99.90
18777;DHT22;9517;51.174;4.160;2022-08-14T02:29:19;21.90;99.90
18777;DHT22;9517;51.174;4.160;2022-08-14T02:31:48;21.90;99.90
18777;DHT22;9517;51.174;4.160;2022-08-14T02:34:17;21.80;99.90
18777;DHT22;9517;51.174;4.160;2022-08-14T02:36:46;21.90;99.90
18777;DHT22;9517;51.174;4.160;2022-08-14T02:39:14;21.80;99.90
18777;DHT22;9517;51.174;4.160;2022-08-14T02:41:42;21.80;99.90
18777;DHT22;9517;51.174;4.160;2022-08-14T02:44:10;21.80;99.90
18777;DHT22;9517;51.174;4.160;2022-08-14T02:46:40;21.90;99.90
18777;DHT22;9517;51.174;4.160;2022-08-14T02:49:09;21.90;99.90
18777;DHT22;9517;51.174;4.160;2022-08-14T02:51:37;21.90;99.90
18777;DHT22;9517;51.174;4.160;2022-08-14T02:54:05;21.80;99.90
18777;DHT22;9517;51.174;4.160;2022-08-14T02:56:33;21.80;99.90
18777;DHT22;9517;51.174;4.160;2022-08-14T02:59:04;21.80;99.90
18777;DHT22;9517;51.174;4.160;2022-08-14T03:01:32;21.80;99.90
18777;DHT22;9517;51.174;4.160;2022-08-14T03:04:01;21.80;99.90
18777;DHT22;9517;51.174;4.160;2022-08-14T03:06:28;21.80;99.90
18777;DHT22;9517;51.174;4.160;2022-08-14T03:08:55;21.80;99.90
18777;DHT22;9517;51.174;4.160;2022-08-14T03:11:24;21.80;99.90
18777;DHT22;9517;51.174;4.160;2022-08-14T03:13:51;21.70;99.90
18777;DHT22;9517;51.174;4.160;2022-08-14T03:16:21;21.70;99.90
18777;DHT22;9517;51.174;4.160;2022-08-14T03:18:50;21.60;99.90
18777;DHT22;9517;51.174;4.160;2022-08-14T03:21:24;21.60;99.90
18777;DHT22;9517;51.174;4.160;2022-08-14T03:23:56;21.60;99.90
18777;DHT22;9517;51.174;4.160;2022-08-14T03:26:32;21.50;99.90
18777;DHT22;9517;51.174;4.160;2022-08-14T03:28:59;21.50;99.90
18777;DHT22;9517;51.174;4.160;2022-08-14T03:31:27;21.40;99.90
18777;DHT22;9517;51.174;4.160;2022-08-14T03:33:55;21.40;99.90
18777;DHT22;9517;51.174;4.160;2022-08-14T03:36:23;21.40;99.90
18777;DHT22;9517;51.174;4.160;2022-08-14T03:38:51;21.30;99.90
18777;DHT22;9517;51.174;4.160;2022-08-14T03:41:20;21.30;99.90
18777;DHT22;9517;51.174;4.160;2022-08-14T03:43:49;21.20;99.90
18777;DHT22;9517;51.174;4.160;2022-08-14T03:46:17;21.20;99.90
18777;DHT22;9517;51.174;4.160;2022-08-14T03:48:44;21.20;99.90
18777;DHT22;9517;51.174;4.160;2022-08-14T03:51:11;21.20;99.90
18777;DHT22;9517;51.174;4.160;2022-08-14T03:53:42;21.20;99.90
18777;DHT22;9517;51.174;4.160;2022-08-14T03:56:14;21.20;99.90
18777;DHT22;9517;51.174;4.160;2022-08-14T03:58:46;21.20;99.90
18777;DHT22;9517;51.174;4.160;2022-08-14T04:01:15;21.20;99.90
18777;DHT22;9517;51.174;4.160;2022-08-14T04:03:44;21.10;99.90
18777;DHT22;9517;51.174;4.160;2022-08-14T04:06:11;21.10;99.90
18777;DHT22;9517;51.174;4.160;2022-08-14T04:08:40;21.10;99.90
18777;DHT22;9517;51.174;4.160;2022-08-14T04:11:08;21.10;99.90
18777;DHT22;9517;51.174;4.160;2022-08-14T04:13:37;21.10;99.90
18777;DHT22;9517;51.174;4.160;2022-08-14T04:16:07;21.00;99.90
18777;DHT22;9517;51.174;4.160;2022-08-14T04:18:37;21.00;99.90
18777;DHT22;9517;51.174;4.160;2022-08-14T04:21:06;21.00;99.90
18777;DHT22;9517;51.174;4.160;2022-08-14T04:23:33;20.90;99.90
18777;DHT22;9517;51.174;4.160;2022-08-14T04:26:03;20.90;99.90
18777;DHT22;9517;51.174;4.160;2022-08-14T04:28:31;20.90;99.90
18777;DHT22;9517;51.174;4.160;2022-08-14T04:30:58;20.90;99.90
18777;DHT22;9517;51.174;4.160;2022-08-14T04:33:25;20.80;99.90
18777;DHT22;9517;51.174;4.160;2022-08-14T04:35:53;20.90;99.90
18777;DHT22;9517;51.174;4.160;2022-08-14T04:38:21;20.90;99.90
18777;DHT22;9517;51.174;4.160;2022-08-14T04:41:07;20.90;99.90
18777;DHT22;9517;51.174;4.160;2022-08-14T04:43:52;20.80;99.90
18777;DHT22;9517;51.174;4.160;2022-08-14T04:46:21;20.80;99.90
18777;DHT22;9517;51.174;4.160;2022-08-14T04:48:48;20.80;99.90
18777;DHT22;9517;51.174;4.160;2022-08-14T04:51:18;20.90;99.90
18777;DHT22;9517;51.174;4.160;2022-08-14T04:53:47;21.00;99.90
18777;DHT22;9517;51.174;4.160;2022-08-14T04:56:18;21.00;99.90
18777;DHT22;9517;51.174;4.160;2022-08-14T04:58:48;21.00;99.90
18777;DHT22;9517;51.174;4.160;2022-08-14T05:01:15;21.00;99.90
18777;DHT22;9517;51.174;4.160;2022-08-14T05:03:42;20.90;99.90
18777;DHT22;9517;51.174;4.160;2022-08-14T05:06:11;20.90;99.90
18777;DHT22;9517;51.174;4.160;2022-08-14T05:08:38;21.00;99.90
18777;DHT22;9517;51.174;4.160;2022-08-14T05:11:10;21.10;99.90
18777;DHT22;9517;51.174;4.160;2022-08-14T05:13:39;21.00;99.90
18777;DHT22;9517;51.174;4.160;2022-08-14T05:16:06;21.00;99.90
18777;DHT22;9517;51.174;4.160;2022-08-14T05:18:35;21.10;99.90
18777;DHT22;9517;51.174;4.160;2022-08-14T05:21:04;21.20;99.90
18777;DHT22;9517;51.174;4.160;2022-08-14T05:23:36;21.10;99.90
18777;DHT22;9517;51.174;4.160;2022-08-14T05:26:04;21.20;99.90
18777;DHT22;9517;51.174;4.160;2022-08-14T05:28:40;21.30;99.90
18777;DHT22;9517;51.174;4.160;2022-08-14T05:31:10;21.30;99.90
18777;DHT22;9517;51.174;4.160;2022-08-14T05:33:38;21.40;99.90
18777;DHT22;9517;51.174;4.160;2022-08-14T05:36:06;21.50;99.90
18777;DHT22;9517;51.174;4.160;2022-08-14T05:38:38;21.60;99.90
18777;DHT22;9517;51.174;4.160;2022-08-14T05:41:09;21.60;99.90
18777;DHT22;9517;51.174;4.160;2022-08-14T05:43:38;21.70;99.90
18777;DHT22;9517;51.174;4.160;2022-08-14T05:46:06;21.70;99.90
18777;DHT22;9517;51.174;4.160;2022-08-14T05:48:35;21.80;99.90
18777;DHT22;9517;51.174;4.160;2022-08-14T05:51:02;21.90;99.90
18777;DHT22;9517;51.174;4.160;2022-08-14T05:53:29;21.80;99.90
18777;DHT22;9517;51.174;4.160;2022-08-14T05:55:57;21.90;99.90
18777;DHT22;9517;51.174;4.160;2022-08-14T05:58:27;21.90;99.90
18777;DHT22;9517;51.174;4.160;2022-08-14T06:00:56;22.00;99.90
18777;DHT22;9517;51.174;4.160;2022-08-14T06:03:23;22.00;99.90
18777;DHT22;9517;51.174;4.160;2022-08-14T06:05:52;22.00;99.90
18777;DHT22;9517;51.174;4.160;2022-08-14T06:08:21;22.10;99.90
18777;DHT22;9517;51.174;4.160;2022-08-14T06:10:49;22.20;99.90
18777;DHT22;9517;51.174;4.160;2022-08-14T06:13:17;22.30;99.90
18777;DHT22;9517;51.174;4.160;2022-08-14T06:15:44;22.30;99.90
18777;DHT22;9517;51.174;4.160;2022-08-14T06:18:14;22.50;99.90
18777;DHT22;9517;51.174;4.160;2022-08-14T06:20:42;22.50;99.90
18777;DHT22;9517;51.174;4.160;2022-08-14T06:23:09;22.50;99.90
18777;DHT22;9517;51.174;4.160;2022-08-14T06:25:37;22.80;99.90
18777;DHT22;9517;51.174;4.160;2022-08-14T06:28:04;22.90;99.90
18777;DHT22;9517;51.174;4.160;2022-08-14T06:30:33;23.00;99.90
18777;DHT22;9517;51.174;4.160;2022-08-14T06:33:00;23.10;99.90
18777;DHT22;9517;51.174;4.160;2022-08-14T06:35:28;23.30;99.90
18777;DHT22;9517;51.174;4.160;2022-08-14T06:37:57;23.50;99.90
18777;DHT22;9517;51.174;4.160;2022-08-14T06:40:26;23.60;99.90
18777;DHT22;9517;51.174;4.160;2022-08-14T06:42:55;23.70;99.90
18777;DHT22;9517;51.174;4.160;2022-08-14T06:45:22;23.90;99.90
18777;DHT22;9517;51.174;4.160;2022-08-14T06:47:50;24.00;99.90
18777;DHT22;9517;51.174;4.160;2022-08-14T06:50:19;24.30;99.90
18777;DHT22;9517;51.174;4.160;2022-08-14T06:52:48;24.30;99.90
18777;DHT22;9517;51.174;4.160;2022-08-14T06:55:16;24.50;99.90
18777;DHT22;9517;51.174;4.160;2022-08-14T06:57:45;24.80;99.90
18777;DHT22;9517;51.174;4.160;2022-08-14T07:00:14;25.00;99.90
18777;DHT22;9517;51.174;4.160;2022-08-14T07:02:42;25.10;99.90
18777;DHT22;9517;51.174;4.160;2022-08-14T07:05:27;25.30;99.90
18777;DHT22;9517;51.174;4.160;2022-08-14T07:08:15;25.40;99.90
18777;DHT22;9517;51.174;4.160;2022-08-14T07:10:47;25.60;99.90
18777;DHT22;9517;51.174;4.160;2022-08-14T07:13:16;25.80;99.90
18777;DHT22;9517;51.174;4.160;2022-08-14T07:15:44;26.00;99.90
18777;DHT22;9517;51.174;4.160;2022-08-14T07:18:18;26.10;99.90
18777;DHT22;9517;51.174;4.160;2022-08-14T07:20:49;26.30;99.90
18777;DHT22;9517;51.174;4.160;2022-08-14T07:23:19;26.50;99.90
18777;DHT22;9517;51.174;4.160;2022-08-14T07:25:49;26.60;99.90
18777;DHT22;9517;51.174;4.160;2022-08-14T07:28:21;26.90;99.50
18777;DHT22;9517;51.174;4.160;2022-08-14T07:30:49;27.10;97.80
18777;DHT22;9517;51.174;4.160;2022-08-14T07:33:17;27.30;98.00
18777;DHT22;9517;51.174;4.160;2022-08-14T07:35:44;27.50;96.70
18777;DHT22;9517;51.174;4.160;2022-08-14T07:38:19;27.60;95.40
18777;DHT22;9517;51.174;4.160;2022-08-14T07:40:46;27.70;94.80
18777;DHT22;9517;51.174;4.160;2022-08-14T07:43:13;28.10;94.40
18777;DHT22;9517;51.174;4.160;2022-08-14T07:45:41;28.20;93.50
18777;DHT22;9517;51.174;4.160;2022-08-14T07:48:08;28.20;93.80
18777;DHT22;9517;51.174;4.160;2022-08-14T07:50:43;28.40;94.10
18777;DHT22;9517;51.174;4.160;2022-08-14T07:53:12;28.40;93.00
18777;DHT22;9517;51.174;4.160;2022-08-14T07:55:41;28.40;93.00
18777;DHT22;9517;51.174;4.160;2022-08-14T07:58:09;28.70;93.00
18777;DHT22;9517;51.174;4.160;2022-08-14T08:00:36;28.70;93.90
18777;DHT22;9517;51.174;4.160;2022-08-14T08:03:06;28.90;93.20
18777;DHT22;9517;51.174;4.160;2022-08-14T08:05:36;28.90;91.60
18777;DHT22;9517;51.174;4.160;2022-08-14T08:08:04;29.00;91.50
18777;DHT22;9517;51.174;4.160;2022-08-14T08:10:32;29.10;91.40
18777;DHT22;9517;51.174;4.160;2022-08-14T08:13:03;29.40;91.60
18777;DHT22;9517;51.174;4.160;2022-08-14T08:15:34;29.70;91.40
18777;DHT22;9517;51.174;4.160;2022-08-14T08:18:02;30.00;91.40
18777;DHT22;9517;51.174;4.160;2022-08-14T08:20:32;30.00;90.00
18777;DHT22;9517;51.174;4.160;2022-08-14T08:22:59;30.20;90.90
18777;DHT22;9517;51.174;4.160;2022-08-14T08:25:28;30.30;90.00
18777;DHT22;9517;51.174;4.160;2022-08-14T08:27:58;30.70;88.80
18777;DHT22;9517;51.174;4.160;2022-08-14T08:30:28;30.90;87.10
18777;DHT22;9517;51.174;4.160;2022-08-14T08:32:57;31.00;86.40
18777;DHT22;9517;51.174;4.160;2022-08-14T08:35:28;31.20;85.50
18777;DHT22;9517;51.174;4.160;2022-08-14T08:38:00;31.50;85.90
18777;DHT22;9517;51.174;4.160;2022-08-14T08:40:30;31.40;83.30
18777;DHT22;9517;51.174;4.160;2022-08-14T08:43:00;31.40;83.00
18777;DHT22;9517;51.174;4.160;2022-08-14T08:45:29;31.40;84.10
18777;DHT22;9517;51.174;4.160;2022-08-14T08:47:56;31.50;85.20
18777;DHT22;9517;51.174;4.160;2022-08-14T08:50:25;31.40;83.70
18777;DHT22;9517;51.174;4.160;2022-08-14T08:52:56;31.40;84.60
18777;DHT22;9517;51.174;4.160;2022-08-14T08:55:25;31.60;82.80
18777;DHT22;9517;51.174;4.160;2022-08-14T08:57:54;31.80;82.40
18777;DHT22;9517;51.174;4.160;2022-08-14T09:00:21;32.10;82.00
18777;DHT22;9517;51.174;4.160;2022-08-14T09:02:58;32.40;82.30
18777;DHT22;9517;51.174;4.160;2022-08-14T09:05:28;32.50;79.90
18777;DHT22;9517;51.174;4.160;2022-08-14T09:08:09;32.50;82.30
18777;DHT22;9517;51.174;4.160;2022-08-14T09:10:36;33.00;78.90
18777;DHT22;9517;51.174;4.160;2022-08-14T09:13:03;33.10;78.90
18777;DHT22;9517;51.174;4.160;2022-08-14T09:15:30;33.30;77.50
18777;DHT22;9517;51.174;4.160;2022-08-14T09:17:59;33.80;76.10
18777;DHT22;9517;51.174;4.160;2022-08-14T09:20:26;33.80;74.60
18777;DHT22;9517;51.174;4.160;2022-08-14T09:22:54;34.00;76.20
18777;DHT22;9517;51.174;4.160;2022-08-14T09:25:21;34.20;74.60
18777;DHT22;9517;51.174;4.160;2022-08-14T09:27:48;34.50;75.40
18777;DHT22;9517;51.174;4.160;2022-08-14T09:30:15;34.70;72.80
18777;DHT22;9517;51.174;4.160;2022-08-14T09:33:02;34.60;72.00
18777;DHT22;9517;51.174;4.160;2022-08-14T09:35:39;34.90;73.20
18777;DHT22;9517;51.174;4.160;2022-08-14T09:38:18;34.80;71.30
18777;DHT22;9517;51.174;4.160;2022-08-14T09:43:42;34.90;71.20
18777;DHT22;9517;51.174;4.160;2022-08-14T09:46:11;35.20;72.50
18777;DHT22;9517;51.174;4.160;2022-08-14T09:48:41;35.10;71.40
18777;DHT22;9517;51.174;4.160;2022-08-14T09:51:20;35.30;72.40
18777;DHT22;9517;51.174;4.160;2022-08-14T09:54:00;35.70;70.60
18777;DHT22;9517;51.174;4.160;2022-08-14T09:56:42;35.70;69.70
18777;DHT22;9517;51.174;4.160;2022-08-14T09:59:11;35.40;69.10
18777;DHT22;9517;51.174;4.160;2022-08-14T10:01:40;35.60;68.80
18777;DHT22;9517;51.174;4.160;2022-08-14T10:04:19;35.50;68.90
18777;DHT22;9517;51.174;4.160;2022-08-14T10:06:48;35.30;67.10
18777;DHT22;9517;51.174;4.160;2022-08-14T10:09:16;35.40;68.40
18777;DHT22;9517;51.174;4.160;2022-08-14T10:11:53;35.50;68.00
18777;DHT22;9517;51.174;4.160;2022-08-14T10:14:23;35.60;66.90
18777;DHT22;9517;51.174;4.160;2022-08-14T10:16:52;35.80;66.80
18777;DHT22;9517;51.174;4.160;2022-08-14T10:19:22;35.90;65.70
18777;DHT22;9517;51.174;4.160;2022-08-14T10:22:00;36.00;66.80
18777;DHT22;9517;51.174;4.160;2022-08-14T10:24:29;35.90;66.60
18777;DHT22;9517;51.174;4.160;2022-08-14T10:26:58;36.00;65.70
18777;DHT22;9517;51.174;4.160;2022-08-14T10:29:33;36.20;66.10
18777;DHT22;9517;51.174;4.160;2022-08-14T10:32:00;36.10;65.40
18777;DHT22;9517;51.174;4.160;2022-08-14T10:34:33;36.00;65.30
18777;DHT22;9517;51.174;4.160;2022-08-14T10:37:05;36.20;63.70
18777;DHT22;9517;51.174;4.160;2022-08-14T10:39:34;36.90;64.00
18777;DHT22;9517;51.174;4.160;2022-08-14T10:42:03;37.80;61.10
18777;DHT22;9517;51.174;4.160;2022-08-14T10:44:35;37.90;60.30
18777;DHT22;9517;51.174;4.160;2022-08-14T10:47:03;38.10;59.80
18777;DHT22;9517;51.174;4.160;2022-08-14T10:49:35;37.80;60.40
18777;DHT22;9517;51.174;4.160;2022-08-14T10:52:05;38.00;60.00
18777;DHT22;9517;51.174;4.160;2022-08-14T10:54:35;38.50;59.90
18777;DHT22;9517;51.174;4.160;2022-08-14T10:57:11;38.70;59.40
18777;DHT22;9517;51.174;4.160;2022-08-14T10:59:44;39.30;59.10
18777;DHT22;9517;51.174;4.160;2022-08-14T11:02:23;39.60;56.40
18777;DHT22;9517;51.174;4.160;2022-08-14T11:05:13;39.80;56.30
18777;DHT22;9517;51.174;4.160;2022-08-14T11:07:57;40.00;56.10
18777;DHT22;9517;51.174;4.160;2022-08-14T11:10:39;40.50;55.30
18777;DHT22;9517;51.174;4.160;2022-08-14T11:13:07;40.50;55.20
18777;DHT22;9517;51.174;4.160;2022-08-14T11:15:34;41.00;54.80
18777;DHT22;9517;51.174;4.160;2022-08-14T11:18:02;41.10;54.20
18777;DHT22;9517;51.174;4.160;2022-08-14T11:20:31;41.50;53.30
18777;DHT22;9517;51.174;4.160;2022-08-14T11:22:59;41.60;53.60
18777;DHT22;9517;51.174;4.160;2022-08-14T11:25:29;41.80;52.70
18777;DHT22;9517;51.174;4.160;2022-08-14T11:27:58;41.90;52.70
18777;DHT22;9517;51.174;4.160;2022-08-14T11:30:27;42.00;51.80
18777;DHT22;9517;51.174;4.160;2022-08-14T11:32:55;42.00;52.10
18777;DHT22;9517;51.174;4.160;2022-08-14T11:35:27;42.60;51.70
18777;DHT22;9517;51.174;4.160;2022-08-14T11:37:58;42.40;51.10
18777;DHT22;9517;51.174;4.160;2022-08-14T11:40:27;42.80;51.50
18777;DHT22;9517;51.174;4.160;2022-08-14T11:42:56;42.60;50.30
18777;DHT22;9517;51.174;4.160;2022-08-14T11:45:25;42.40;50.90
18777;DHT22;9517;51.174;4.160;2022-08-14T11:47:53;42.70;50.60
18777;DHT22;9517;51.174;4.160;2022-08-14T11:50:23;42.60;50.40
18777;DHT22;9517;51.174;4.160;2022-08-14T11:52:50;42.40;51.00
18777;DHT22;9517;51.174;4.160;2022-08-14T11:55:21;42.70;50.10
18777;DHT22;9517;51.174;4.160;2022-08-14T11:57:58;42.60;50.90
18777;DHT22;9517;51.174;4.160;2022-08-14T12:00:27;42.70;50.80
18777;DHT22;9517;51.174;4.160;2022-08-14T12:02:56;42.10;51.10
18777;DHT22;9517;51.174;4.160;2022-08-14T12:05:35;42.20;51.30
18777;DHT22;9517;51.174;4.160;2022-08-14T12:08:04;42.20;51.60
18777;DHT22;9517;51.174;4.160;2022-08-14T12:10:34;42.60;50.60
18777;DHT22;9517;51.174;4.160;2022-08-14T12:13:10;43.30;51.40
18777;DHT22;9517;51.174;4.160;2022-08-14T12:15:38;43.50;50.00
18777;DHT22;9517;51.174;4.160;2022-08-14T12:18:06;43.10;49.90
18777;DHT22;9517;51.174;4.160;2022-08-14T12:20:35;42.80;50.90
18777;DHT22;9517;51.174;4.160;2022-08-14T12:23:04;43.50;49.60
18777;DHT22;9517;51.174;4.160;2022-08-14T12:25:33;43.40;49.20
18777;DHT22;9517;51.174;4.160;2022-08-14T12:28:02;43.50;49.40
18777;DHT22;9517;51.174;4.160;2022-08-14T12:30:35;43.90;48.90
18777;DHT22;9517;51.174;4.160;2022-08-14T12:33:08;43.20;49.20
18777;DHT22;9517;51.174;4.160;2022-08-14T12:35:46;43.30;49.10
18777;DHT22;9517;51.174;4.160;2022-08-14T12:38:15;43.40;49.30
18777;DHT22;9517;51.174;4.160;2022-08-14T12:40:47;43.30;49.10
18777;DHT22;9517;51.174;4.160;2022-08-14T12:43:15;43.40;50.70
18777;DHT22;9517;51.174;4.160;2022-08-14T12:45:46;43.40;49.80
18777;DHT22;9517;51.174;4.160;2022-08-14T12:48:17;43.40;50.30
18777;DHT22;9517;51.174;4.160;2022-08-14T12:50:45;43.60;51.00
18777;DHT22;9517;51.174;4.160;2022-08-14T12:53:12;43.70;50.00
18777;DHT22;9517;51.174;4.160;2022-08-14T12:55:41;43.70;49.30
18777;DHT22;9517;51.174;4.160;2022-08-14T12:58:10;43.50;49.90
18777;DHT22;9517;51.174;4.160;2022-08-14T13:00:46;43.40;50.90
18777;DHT22;9517;51.174;4.160;2022-08-14T13:03:22;43.10;49.50
18777;DHT22;9517;51.174;4.160;2022-08-14T13:05:49;42.80;49.90
18777;DHT22;9517;51.174;4.160;2022-08-14T13:08:17;42.70;51.10
18777;DHT22;9517;51.174;4.160;2022-08-14T13:10:46;42.40;49.80
18777;DHT22;9517;51.174;4.160;2022-08-14T13:13:17;42.70;49.90
18777;DHT22;9517;51.174;4.160;2022-08-14T13:15:46;42.50;51.70
18777;DHT22;9517;51.174;4.160;2022-08-14T13:18:15;42.70;50.40
18777;DHT22;9517;51.174;4.160;2022-08-14T13:20:43;43.00;50.30
18777;DHT22;9517;51.174;4.160;2022-08-14T13:23:12;43.70;49.50
18777;DHT22;9517;51.174;4.160;2022-08-14T13:25:43;44.00;48.30
18777;DHT22;9517;51.174;4.160;2022-08-14T13:28:11;42.70;48.70
18777;DHT22;9517;51.174;4.160;2022-08-14T13:30:42;42.10;49.70
18777;DHT22;9517;51.174;4.160;2022-08-14T13:33:12;42.00;49.40
18777;DHT22;9517;51.174;4.160;2022-08-14T13:35:40;42.40;50.70
18777;DHT22;9517;51.174;4.160;2022-08-14T13:38:12;43.10;48.90
18777;DHT22;9517;51.174;4.160;2022-08-14T13:40:42;43.60;49.00
18777;DHT22;9517;51.174;4.160;2022-08-14T13:43:11;43.50;48.20
18777;DHT22;9517;51.174;4.160;2022-08-14T13:45:40;43.30;49.20
18777;DHT22;9517;51.174;4.160;2022-08-14T13:48:09;43.90;48.80
18777;DHT22;9517;51.174;4.160;2022-08-14T13:50:37;44.10;48.50
18777;DHT22;9517;51.174;4.160;2022-08-14T13:53:06;44.30;49.20
18777;DHT22;9517;51.174;4.160;2022-08-14T13:55:38;44.60;47.80
18777;DHT22;9517;51.174;4.160;2022-08-14T13:58:06;44.40;47.60
18777;DHT22;9517;51.174;4.160;2022-08-14T14:00:36;43.50;48.40
18777;DHT22;9517;51.174;4.160;2022-08-14T14:03:07;42.80;48.70
18777;DHT22;9517;51.174;4.160;2022-08-14T14:05:37;42.50;48.20
18777;DHT22;9517;51.174;4.160;2022-08-14T14:08:04;41.70;49.00
18777;DHT22;9517;51.174;4.160;2022-08-14T14:10:35;41.30;49.40
18777;DHT22;9517;51.174;4.160;2022-08-14T14:13:03;40.80;49.90
18777;DHT22;9517;51.174;4.160;2022-08-14T14:15:30;40.60;49.20
18777;DHT22;9517;51.174;4.160;2022-08-14T14:18:03;40.60;50.50
18777;DHT22;9517;51.174;4.160;2022-08-14T14:20:31;40.60;50.10
18777;DHT22;9517;51.174;4.160;2022-08-14T14:22:58;40.30;50.70
18777;DHT22;9517;51.174;4.160;2022-08-14T14:25:26;40.50;49.30
18777;DHT22;9517;51.174;4.160;2022-08-14T14:27:55;40.70;51.50
18777;DHT22;9517;51.174;4.160;2022-08-14T14:30:25;40.90;49.30
18777;DHT22;9517;51.174;4.160;2022-08-14T14:32:53;41.10;50.60
18777;DHT22;9517;51.174;4.160;2022-08-14T14:35:22;40.40;49.60
18777;DHT22;9517;51.174;4.160;2022-08-14T14:37:51;40.20;50.90
18777;DHT22;9517;51.174;4.160;2022-08-14T14:40:19;40.60;50.20
18777;DHT22;9517;51.174;4.160;2022-08-14T14:42:49;40.60;49.50
18777;DHT22;9517;51.174;4.160;2022-08-14T14:45:18;40.70;49.10
18777;DHT22;9517;51.174;4.160;2022-08-14T14:47:47;40.80;50.30
18777;DHT22;9517;51.174;4.160;2022-08-14T14:50:16;40.30;48.70
18777;DHT22;9517;51.174;4.160;2022-08-14T14:52:45;40.40;49.40
18777;DHT22;9517;51.174;4.160;2022-08-14T14:55:13;40.60;50.80
18777;DHT22;9517;51.174;4.160;2022-08-14T14:57:41;40.80;48.60
18777;DHT22;9517;51.174;4.160;2022-08-14T15:00:11;41.10;49.50
18777;DHT22;9517;51.174;4.160;2022-08-14T15:02:40;41.20;48.10
18777;DHT22;9517;51.174;4.160;2022-08-14T15:05:08;40.70;47.80
18777;DHT22;9517;51.174;4.160;2022-08-14T15:07:36;40.50;49.70
18777;DHT22;9517;51.174;4.160;2022-08-14T15:10:04;40.50;48.80
18777;DHT22;9517;51.174;4.160;2022-08-14T15:12:33;40.20;50.00
18777;DHT22;9517;51.174;4.160;2022-08-14T15:15:01;40.20;50.20
18777;DHT22;9517;51.174;4.160;2022-08-14T15:17:29;39.50;48.90
18777;DHT22;9517;51.174;4.160;2022-08-14T15:20:00;38.80;50.90
18777;DHT22;9517;51.174;4.160;2022-08-14T15:22:28;38.40;49.70
18777;DHT22;9517;51.174;4.160;2022-08-14T15:24:58;37.80;50.90
18777;DHT22;9517;51.174;4.160;2022-08-14T15:27:25;37.80;50.90
18777;DHT22;9517;51.174;4.160;2022-08-14T15:29:55;37.50;51.10
18777;DHT22;9517;51.174;4.160;2022-08-14T15:32:22;37.20;51.50
18777;DHT22;9517;51.174;4.160;2022-08-14T15:34:49;36.70;51.20
18777;DHT22;9517;51.174;4.160;2022-08-14T15:37:16;36.50;52.20
18777;DHT22;9517;51.174;4.160;2022-08-14T15:39:44;36.20;51.40
18777;DHT22;9517;51.174;4.160;2022-08-14T15:42:11;36.00;51.80
18777;DHT22;9517;51.174;4.160;2022-08-14T15:44:38;36.00;52.20
18777;DHT22;9517;51.174;4.160;2022-08-14T15:47:07;35.70;52.20
18777;DHT22;9517;51.174;4.160;2022-08-14T15:49:35;35.80;52.90
18777;DHT22;9517;51.174;4.160;2022-08-14T15:52:03;35.60;52.30
18777;DHT22;9517;51.174;4.160;2022-08-14T15:54:32;35.50;53.90
18777;DHT22;9517;51.174;4.160;2022-08-14T15:57:04;35.70;53.70
18777;DHT22;9517;51.174;4.160;2022-08-14T15:59:33;35.80;54.60
18777;DHT22;9517;51.174;4.160;2022-08-14T16:02:16;35.90;54.00